Time;durP1;ratioP1;P1;durP2;ratioP2;P2;SDS_P1;SDS_P2;PMS_P1;PMS_P2;Temp;Humidity;BMP_temperature;BMP_pressure;BME280_temperature;BME280_humidity;BME280_pressure;Samples;Min_cycle;Max_cycle;Signal;HPM_P1;HPM_P2
2022/03/12 00:00:35;;;;;;;13.60;10.07;;;;;;;1.47;47.46;95355.59;5071889;28;20459;-75
2022/03/12 00:03:00;;;;;;;11.87;10.43;;;;;;;1.54;47.28;95362.72;5059417;28;20185;-74
2022/03/12 00:05:32;;;;;;;11.90;9.00;;;;;;;1.45;47.38;95362.63;5075820;28;20205;-74
2022/03/12 00:08:00;;;;;;;12.63;11.30;;;;;;;0.94;48.99;95364.78;5069375;28;20293;-74
2022/03/12 00:10:28;;;;;;;13.23;10.60;;;;;;;1.47;48.08;95361.56;5074696;28;20182;-74
2022/03/12 00:12:53;;;;;;;15.32;11.18;;;;;;;0.96;48.63;95367.25;5081820;28;20163;-74
2022/03/12 00:15:19;;;;;;;14.07;10.03;;;;;;;0.84;48.26;95374.16;5073082;28;20240;-74
2022/03/12 00:17:45;;;;;;;15.17;10.60;;;;;;;1.47;47.71;95366.72;5054352;28;20162;-74
2022/03/12 00:20:16;;;;;;;14.38;10.90;;;;;;;1.72;46.69;95369.94;5041440;28;20210;-74
2022/03/12 00:22:48;;;;;;;13.02;11.10;;;;;;;1.84;46.08;95376.72;5055286;28;20254;-74
2022/03/12 00:25:18;;;;;;;13.27;11.20;;;;;;;0.99;48.90;95369.59;5045684;28;20617;-74
2022/03/12 00:27:45;;;;;;;14.07;11.52;;;;;;;1.31;49.30;95374.84;5061057;28;20244;-74
2022/03/12 00:30:15;;;;;;;12.77;11.50;;;;;;;0.60;52.08;95371.66;5049994;28;20197;-74
2022/03/12 00:32:41;;;;;;;13.57;12.10;;;;;;;0.46;53.12;95370.13;5048916;28;20175;-74
2022/03/12 00:35:10;;;;;;;12.15;10.23;;;;;;;0.33;53.98;95379.69;5065799;28;20163;-74
2022/03/12 00:37:37;;;;;;;16.58;12.52;;;;;;;1.07;52.53;95379.31;5062487;28;20185;-74
2022/03/12 00:40:04;;;;;;;20.98;13.75;;;;;;;0.86;54.65;95377.44;5055683;28;20601;-74
2022/03/12 00:42:30;;;;;;;14.40;12.00;;;;;;;0.86;54.54;95382.59;5059373;28;20601;-74
2022/03/12 00:44:56;;;;;;;16.37;12.77;;;;;;;1.17;54.77;95377.66;5038031;28;20180;-74
2022/03/12 00:47:21;;;;;;;19.50;14.03;;;;;;;0.32;56.00;95372.91;5050034;28;20463;-75
2022/03/12 00:49:47;;;;;;;18.20;13.20;;;;;;;0.98;54.97;95373.91;5055668;28;20206;-74
2022/03/12 00:52:13;;;;;;;19.63;13.50;;;;;;;1.30;54.30;95372.38;5065289;28;20166;-74
2022/03/12 00:54:39;;;;;;;19.53;13.23;;;;;;;1.03;55.68;95377.91;5066952;28;20179;-74
2022/03/12 00:57:04;;;;;;;21.37;15.00;;;;;;;1.03;56.76;95372.75;5063225;28;20663;-74
2022/03/12 00:59:29;;;;;;;19.30;15.77;;;;;;;0.70;57.28;95372.63;5061285;28;20194;-74
2022/03/12 01:01:55;;;;;;;16.00;12.53;;;;;;;0.19;59.24;95384.09;5056735;28;20199;-74
2022/03/12 01:04:20;;;;;;;22.13;14.50;;;;;;;0.10;60.56;95389.91;5063069;28;20213;-74
2022/03/12 01:06:46;;;;;;;23.97;16.37;;;;;;;-0.24;62.39;95387.19;5048718;28;20182;-74
2022/03/12 01:09:12;;;;;;;25.30;15.63;;;;;;;0.98;58.51;95381.63;5042238;28;20195;-74
2022/03/12 01:11:39;;;;;;;22.57;15.80;;;;;;;1.09;59.33;95380.00;5058315;28;20194;-74
2022/03/12 01:14:06;;;;;;;24.20;18.05;;;;;;;1.06;59.88;95388.78;5061078;28;20446;-74
2022/03/12 01:16:33;;;;;;;19.63;15.85;;;;;;;1.13;59.44;95386.56;5079430;28;20248;-74
2022/03/12 01:18:58;;;;;;;17.92;15.63;;;;;;;1.04;59.97;95382.13;5066851;28;20166;-74
2022/03/12 01:21:24;;;;;;;22.13;16.30;;;;;;;1.44;58.83;95386.78;5076254;28;20220;-74
2022/03/12 01:23:50;;;;;;;19.60;15.00;;;;;;;1.07;59.38;95381.91;5079851;28;20175;-74
2022/03/12 01:26:18;;;;;;;19.88;14.27;;;;;;;1.28;59.28;95387.97;5080169;28;20177;-75
2022/03/12 01:28:44;;;;;;;18.08;13.02;;;;;;;1.14;59.36;95386.47;5066783;28;20282;-74
2022/03/12 01:31:09;;;;;;;16.55;12.43;;;;;;;1.35;59.02;95388.31;5055112;28;20194;-74
2022/03/12 01:33:35;;;;;;;10.50;8.70;;;;;;;0.41;61.15;95381.72;5081908;28;20268;-74
2022/03/12 01:36:01;;;;;;;11.13;7.97;;;;;;;0.96;60.30;95382.72;5066551;28;20174;-74
2022/03/12 01:38:33;;;;;;;8.13;7.33;;;;;;;0.11;62.96;95388.16;5066227;28;20550;-74
2022/03/12 01:41:02;;;;;;;6.93;5.95;;;;;;;0.11;62.05;95391.53;5072642;28;20428;-74
2022/03/12 01:43:32;;;;;;;9.02;6.72;;;;;;;0.40;61.04;95391.19;5068049;28;20175;-74
2022/03/12 01:46:01;;;;;;;6.60;5.20;;;;;;;0.95;58.91;95381.88;5070610;28;20185;-74
2022/03/12 01:48:28;;;;;;;6.25;4.90;;;;;;;0.66;59.02;95385.84;5066173;28;20194;-74
2022/03/12 01:50:54;;;;;;;6.38;5.70;;;;;;;0.86;57.86;95381.78;5058199;28;20182;-76
2022/03/12 01:53:20;;;;;;;7.23;5.20;;;;;;;0.96;58.15;95388.66;5070118;28;20213;-74
2022/03/12 01:55:46;;;;;;;6.30;4.67;;;;;;;0.47;59.58;95381.25;5063014;28;20427;-74
2022/03/12 01:58:11;;;;;;;5.77;4.60;;;;;;;0.60;60.09;95384.53;5064095;28;20537;-74
2022/03/12 02:00:46;;;;;;;2.33;2.13;;;;;;;-0.03;61.53;95389.16;5074469;28;20169;-74
2022/03/12 02:03:13;;;;;;;5.88;5.30;;;;;;;0.26;61.12;95378.50;5067492;28;20312;-74
2022/03/12 02:05:40;;;;;;;9.52;5.03;;;;;;;0.02;61.92;95387.09;5069269;28;20197;-74
2022/03/12 02:08:08;;;;;;;7.15;6.40;;;;;;;-0.10;62.85;95382.81;5084169;28;20194;-74
2022/03/12 02:10:35;;;;;;;8.95;6.20;;;;;;;0.39;61.71;95389.53;5067854;28;20185;-74
2022/03/12 02:13:01;;;;;;;8.15;7.05;;;;;;;-0.17;62.71;95389.31;5079825;28;20637;-74
2022/03/12 02:15:28;;;;;;;10.47;7.10;;;;;;;0.09;63.15;95393.41;5064911;28;20225;-74
2022/03/12 02:17:54;;;;;;;8.30;5.93;;;;;;;0.03;63.29;95388.72;5065859;28;20166;-74
2022/03/12 02:20:21;;;;;;;4.47;3.13;;;;;;;-0.62;64.24;95390.72;5031294;28;20220;-73
2022/03/12 02:22:51;;;;;;;8.20;3.45;;;;;;;-1.06;66.30;95380.97;5045825;28;20185;-74
2022/03/12 02:25:17;;;;;;;3.63;3.35;;;;;;;-0.84;65.88;95382.88;5045282;28;20643;-74
2022/03/12 02:27:42;;;;;;;4.20;3.80;;;;;;;-0.70;65.22;95375.03;5049200;28;20163;-73
2022/03/12 02:30:09;;;;;;;11.10;7.27;;;;;;;-0.04;63.41;95382.38;5034869;28;20227;-74
2022/03/12 02:32:37;;;;;;;10.95;7.03;;;;;;;0.27;62.88;95383.53;5047827;28;20170;-74
2022/03/12 02:35:07;;;;;;;9.30;7.82;;;;;;;0.36;61.97;95372.56;5060119;28;20273;-74
2022/03/12 02:37:35;;;;;;;10.55;7.97;;;;;;;0.40;61.55;95378.31;5052500;28;20262;-75
2022/03/12 02:40:05;;;;;;;7.18;6.45;;;;;;;0.62;60.28;95387.00;5051628;28;20189;-74
2022/03/12 02:42:36;;;;;;;7.50;6.80;;;;;;;0.83;59.54;95382.81;5065324;28;20166;-74
2022/03/12 02:45:04;;;;;;;8.90;6.38;;;;;;;0.87;56.75;95386.78;5054886;28;20187;-74
2022/03/12 02:47:33;;;;;;;6.90;6.20;;;;;;;0.77;56.03;95385.84;5065670;28;20177;-74
2022/03/12 02:50:03;;;;;;;8.55;4.68;;;;;;;0.54;54.08;95385.81;5052822;28;20269;-74
2022/03/12 02:52:31;;;;;;;5.43;4.25;;;;;;;0.35;54.56;95395.84;5055621;28;20198;-74
2022/03/12 02:54:59;;;;;;;6.15;5.55;;;;;;;0.63;54.15;95393.81;5051172;28;20306;-74
2022/03/12 02:57:26;;;;;;;7.07;6.40;;;;;;;0.71;54.91;95399.19;5065508;28;20183;-74
2022/03/12 02:59:53;;;;;;;7.38;6.25;;;;;;;0.86;54.48;95400.63;5050890;28;20183;-74
2022/03/12 03:02:32;;;;;;;7.30;5.32;;;;;;;0.70;54.01;95400.97;5057101;28;20194;-74
2022/03/12 03:04:58;;;;;;;7.00;5.45;;;;;;;0.52;53.32;95399.75;5051438;28;20574;-74
2022/03/12 03:07:24;;;;;;;4.63;4.07;;;;;;;0.76;52.57;95392.78;5047309;28;20195;-74
2022/03/12 03:09:50;;;;;;;6.65;4.88;;;;;;;0.94;52.37;95403.44;5048173;28;20466;-74
2022/03/12 03:12:16;;;;;;;7.20;5.00;;;;;;;0.21;51.73;95406.31;5053667;28;20263;-74
2022/03/12 03:14:43;;;;;;;6.77;5.80;;;;;;;0.92;50.48;95413.03;5060271;28;20222;-74
2022/03/12 03:17:11;;;;;;;9.73;5.10;;;;;;;1.03;51.20;95403.69;5069170;28;20163;-74
2022/03/12 03:19:38;;;;;;;5.90;4.85;;;;;;;1.02;51.11;95413.16;5084505;28;20612;-74
2022/03/12 03:22:05;;;;;;;6.25;5.35;;;;;;;0.43;52.30;95410.72;5069533;28;20166;-74
2022/03/12 03:24:31;;;;;;;7.28;5.13;;;;;;;0.51;53.43;95414.38;5068826;28;20200;-75
2022/03/12 03:27:00;;;;;;;8.57;7.00;;;;;;;0.80;53.63;95411.41;5067081;28;20226;-74
2022/03/12 03:29:28;;;;;;;8.90;7.30;;;;;;;0.85;53.43;95413.63;5068062;28;20213;-74
2022/03/12 03:31:54;;;;;;;7.65;6.78;;;;;;;0.84;53.64;95415.38;5071466;28;20181;-74
2022/03/12 03:34:21;;;;;;;6.93;5.78;;;;;;;1.09;53.08;95418.69;5080669;28;20174;-74
2022/03/12 03:36:47;;;;;;;9.35;6.32;;;;;;;1.24;52.16;95417.50;5069198;28;20613;-74
2022/03/12 03:39:13;;;;;;;6.82;4.65;;;;;;;1.23;52.81;95421.00;5056905;28;20194;-74
2022/03/12 03:41:39;;;;;;;6.37;5.70;;;;;;;1.17;51.76;95421.47;5073690;28;20542;-74
2022/03/12 03:44:07;;;;;;;9.17;6.50;;;;;;;1.22;52.33;95424.53;5068955;28;20956;-75
2022/03/12 03:46:34;;;;;;;6.00;5.40;;;;;;;1.35;51.36;95422.66;5068515;28;20202;-74
2022/03/12 03:49:00;;;;;;;7.40;6.18;;;;;;;1.27;51.23;95425.00;5068292;28;20186;-74
2022/03/12 03:51:26;;;;;;;7.10;6.40;;;;;;;1.30;51.84;95418.78;5068407;28;20242;-75
2022/03/12 03:53:51;;;;;;;8.83;5.90;;;;;;;1.35;51.53;95427.00;5075918;28;20416;-74
2022/03/12 03:56:18;;;;;;;7.70;6.10;;;;;;;1.17;51.56;95424.06;5061949;28;20330;-74
2022/03/12 03:58:44;;;;;;;8.27;6.32;;;;;;;1.35;51.55;95427.81;5087290;28;20174;-74
2022/03/12 04:01:13;;;;;;;10.23;7.90;;;;;;;1.44;51.17;95428.03;5078095;28;20178;-74
2022/03/12 04:03:44;;;;;;;9.68;8.52;;;;;;;0.80;53.69;95429.44;5085617;28;20184;-75
2022/03/12 04:06:10;;;;;;;9.45;7.65;;;;;;;0.64;55.24;95431.50;5068647;28;20201;-74
2022/03/12 04:08:36;;;;;;;8.57;7.38;;;;;;;0.36;56.52;95429.22;5067908;28;20190;-74
2022/03/12 04:11:04;;;;;;;10.30;8.40;;;;;;;0.72;56.33;95424.00;5076570;28;20628;-74
2022/03/12 04:13:31;;;;;;;14.52;9.38;;;;;;;0.86;56.44;95426.38;5062248;28;20200;-74
2022/03/12 04:15:59;;;;;;;12.82;8.95;;;;;;;0.86;56.56;95428.16;5076433;28;20264;-74
2022/03/12 04:18:25;;;;;;;10.18;9.10;;;;;;;1.04;57.01;95425.94;5076237;28;20523;-75
2022/03/12 04:20:51;;;;;;;12.02;9.18;;;;;;;0.82;57.20;95432.72;5075255;28;20285;-74
2022/03/12 04:23:21;;;;;;;11.75;9.57;;;;;;;0.84;57.32;95440.31;5073656;28;20174;-75
2022/03/12 04:25:52;;;;;;;12.60;8.05;;;;;;;0.57;57.72;95439.69;5062797;28;20196;-74
2022/03/12 04:28:23;;;;;;;9.02;8.13;;;;;;;-0.23;61.42;95445.44;5070823;28;20199;-75
2022/03/12 04:30:49;;;;;;;11.20;8.43;;;;;;;0.27;60.04;95441.94;5078170;28;20309;-74
2022/03/12 04:33:16;;;;;;;12.32;9.85;;;;;;;0.34;58.64;95448.25;5083539;28;20654;-74
2022/03/12 04:35:43;;;;;;;10.43;8.07;;;;;;;-0.50;61.63;95453.31;5074608;28;20213;-74
2022/03/12 04:38:09;;;;;;;12.73;9.75;;;;;;;-0.26;61.18;95449.97;5104329;28;20165;-74
2022/03/12 04:40:38;;;;;;;12.45;11.13;;;;;;;-0.63;62.77;95453.31;5056105;28;20181;-74
2022/03/12 04:43:05;;;;;;;15.18;10.60;;;;;;;-0.30;61.75;95464.78;5088068;28;20173;-74
2022/03/12 04:45:31;;;;;;;14.35;11.07;;;;;;;-0.30;61.73;95475.06;5068524;28;20198;-74
2022/03/12 04:47:56;;;;;;;12.40;9.40;;;;;;;-0.07;61.15;95465.75;5080968;28;20226;-74
2022/03/12 04:50:23;;;;;;;14.83;11.37;;;;;;;-0.25;61.19;95473.00;5047903;28;20213;-74
2022/03/12 04:52:52;;;;;;;18.70;12.02;;;;;;;-0.81;62.58;95480.31;5067668;28;20249;-74
2022/03/12 04:55:20;;;;;;;15.80;10.82;;;;;;;-0.86;63.07;95472.88;5071241;28;20574;-74
2022/03/12 04:57:47;;;;;;;14.43;11.48;;;;;;;-1.70;65.95;95475.91;5087388;28;20657;-75
2022/03/12 05:00:25;;;;;;;15.98;11.52;;;;;;;-0.70;63.34;95477.81;5071075;28;20196;-74
2022/03/12 05:02:55;;;;;;;12.23;9.85;;;;;;;-0.53;62.79;95475.84;5087411;28;20240;-74
2022/03/12 05:05:21;;;;;;;13.13;9.93;;;;;;;-0.26;61.08;95486.78;5085879;28;20189;-74
2022/03/12 05:07:48;;;;;;;13.00;9.20;;;;;;;-0.23;61.62;95486.59;5059998;28;20233;-74
2022/03/12 05:10:18;;;;;;;6.72;6.15;;;;;;;-0.98;62.85;95482.25;5084298;28;20209;-74
2022/03/12 05:12:50;;;;;;;12.80;10.48;;;;;;;-1.05;63.93;95485.34;5069260;28;20162;-74
2022/03/12 05:15:17;;;;;;;18.15;8.57;;;;;;;-0.95;63.44;95498.38;5065311;28;20650;-74
2022/03/12 05:17:46;;;;;;;10.50;8.35;;;;;;;-0.72;62.18;95491.69;5079245;28;20173;-74
2022/03/12 05:20:22;;;;;;;11.93;8.48;;;;;;;-0.68;62.19;95501.66;5070671;28;20193;-74
2022/03/12 05:22:48;;;;;;;19.38;9.38;;;;;;;-0.33;61.25;95495.84;5066474;28;20189;-74
2022/03/12 05:25:19;;;;;;;9.88;8.20;;;;;;;0.12;60.56;95503.84;5082432;28;20182;-74
2022/03/12 05:27:51;;;;;;;9.70;8.25;;;;;;;0.06;59.44;95504.28;5076180;28;20169;-74
2022/03/12 05:30:17;;;;;;;9.55;7.88;;;;;;;0.38;59.72;95506.31;5070331;28;20202;-74
2022/03/12 05:32:42;;;;;;;10.48;8.70;;;;;;;0.53;59.22;95515.50;5075675;28;20181;-74
2022/03/12 05:35:09;;;;;;;11.60;9.50;;;;;;;0.72;58.28;95514.16;5073022;28;20182;-75
2022/03/12 05:37:36;;;;;;;11.95;9.75;;;;;;;0.61;58.36;95521.84;5069457;28;20630;-73
2022/03/12 05:40:04;;;;;;;13.57;9.07;;;;;;;0.31;58.64;95525.72;5063914;28;20182;-74
2022/03/12 05:42:34;;;;;;;11.98;8.82;;;;;;;-0.06;59.89;95528.28;5068674;28;20165;-75
2022/03/12 05:45:01;;;;;;;6.85;6.15;;;;;;;-0.11;59.71;95528.63;5071890;28;20187;-74
2022/03/12 05:47:27;;;;;;;10.77;8.93;;;;;;;0.09;59.22;95541.84;5084615;28;20174;-74
2022/03/12 05:49:53;;;;;;;14.00;8.63;;;;;;;-0.02;59.19;95540.84;5072063;28;20551;-74
2022/03/12 05:52:18;;;;;;;10.27;7.07;;;;;;;-0.14;59.05;95538.28;5077614;28;20166;-74
2022/03/12 05:54:48;;;;;;;9.67;7.60;;;;;;;0.50;57.61;95543.22;5075008;28;20676;-74
2022/03/12 05:57:13;;;;;;;8.85;7.82;;;;;;;0.47;56.76;95546.03;5066769;28;20170;-74
2022/03/12 05:59:39;;;;;;;11.07;9.23;;;;;;;0.59;57.32;95542.56;5066629;28;20196;-74
2022/03/12 06:02:05;;;;;;;11.57;8.20;;;;;;;0.73;57.16;95544.97;5080523;28;20174;-74
2022/03/12 06:04:32;;;;;;;12.90;9.33;;;;;;;1.01;56.87;95545.53;5075458;28;20170;-74
2022/03/12 06:06:57;;;;;;;11.60;9.23;;;;;;;0.99;56.72;95547.41;5083873;28;20181;-74
2022/03/12 06:09:23;;;;;;;10.37;8.50;;;;;;;0.67;56.63;95552.31;5063041;28;20187;-74
2022/03/12 06:11:53;;;;;;;9.60;8.50;;;;;;;0.84;55.93;95559.66;5062145;28;20172;-74
2022/03/12 06:14:20;;;;;;;9.73;7.70;;;;;;;0.79;56.84;95561.72;5037806;28;20210;-74
2022/03/12 06:16:48;;;;;;;13.15;10.57;;;;;;;1.07;56.31;95559.72;5077527;28;20207;-75
2022/03/12 06:19:19;;;;;;;11.10;9.68;;;;;;;0.84;55.54;95567.38;5059323;28;20154;-74
2022/03/12 06:21:45;;;;;;;10.82;8.70;;;;;;;0.41;56.73;95562.72;5076017;28;20182;-74
2022/03/12 06:24:11;;;;;;;14.35;10.63;;;;;;;0.96;56.11;95570.81;5071042;28;20171;-74
2022/03/12 06:26:39;;;;;;;10.07;8.93;;;;;;;0.85;55.71;95578.50;5072818;28;20178;-74
2022/03/12 06:29:10;;;;;;;16.48;10.30;;;;;;;1.13;54.93;95570.38;5069201;28;20448;-74
2022/03/12 06:31:36;;;;;;;13.57;9.88;;;;;;;1.29;54.77;95572.66;5075684;28;20261;-74
2022/03/12 06:34:02;;;;;;;10.70;9.17;;;;;;;1.63;53.30;95567.56;5072622;28;20261;-74
2022/03/12 06:36:28;;;;;;;12.47;8.80;;;;;;;1.79;52.69;95571.53;5082819;28;20232;-74
2022/03/12 06:38:53;;;;;;;12.70;9.50;;;;;;;1.18;54.07;95577.78;5067608;28;20597;-74
2022/03/12 06:41:20;;;;;;;10.67;9.57;;;;;;;1.45;53.10;95579.25;5066468;28;20312;-74
2022/03/12 06:43:45;;;;;;;10.10;8.65;;;;;;;1.69;53.32;95587.72;5070486;28;20178;-74
2022/03/12 06:46:14;;;;;;;12.23;10.70;;;;;;;1.92;52.05;95587.72;5078804;28;20193;-74
2022/03/12 06:48:42;;;;;;;10.95;8.82;;;;;;;1.28;52.64;95589.06;5065215;28;20226;-74
2022/03/12 06:51:10;;;;;;;10.98;9.10;;;;;;;1.10;51.60;95588.66;5065769;28;20250;-75
2022/03/12 06:53:36;;;;;;;9.60;8.23;;;;;;;0.85;50.49;95589.59;5082251;28;20205;-74
2022/03/12 06:56:02;;;;;;;10.32;8.15;;;;;;;0.87;51.38;95592.91;5069001;28;20188;-74
2022/03/12 06:58:29;;;;;;;9.63;8.63;;;;;;;1.14;51.12;95594.41;5084353;28;20189;-74
2022/03/12 07:00:55;;;;;;;10.55;8.43;;;;;;;1.88;50.46;95591.50;5067906;28;20174;-74
2022/03/12 07:03:21;;;;;;;11.30;9.43;;;;;;;2.07;49.02;95590.91;5080040;28;20175;-74
2022/03/12 07:05:47;;;;;;;10.80;9.10;;;;;;;2.62;47.86;95591.75;5067286;28;20177;-75
2022/03/12 07:08:12;;;;;;;14.90;9.63;;;;;;;2.10;48.89;95600.97;5072643;28;20218;-74
2022/03/12 07:10:38;;;;;;;9.33;8.40;;;;;;;1.75;48.13;95594.97;5069343;28;21043;-74
2022/03/12 07:13:03;;;;;;;14.13;9.50;;;;;;;2.68;46.75;95605.94;5073909;28;20181;-74
2022/03/12 07:15:29;;;;;;;12.00;9.40;;;;;;;3.44;45.88;95598.91;5076303;28;20279;-74
2022/03/12 07:17:55;;;;;;;9.10;7.40;;;;;;;3.11;43.75;95599.88;5084849;28;20158;-74
2022/03/12 07:20:21;;;;;;;7.60;6.87;;;;;;;3.33;42.14;95601.56;5069679;28;20489;-75
2022/03/12 07:22:48;;;;;;;8.37;7.53;;;;;;;2.57;43.26;95616.28;5071244;28;20421;-74
2022/03/12 07:25:15;;;;;;;7.50;6.80;;;;;;;3.38;42.74;95608.91;5069438;28;20429;-76
2022/03/12 07:27:41;;;;;;;9.18;7.15;;;;;;;3.89;41.46;95619.31;5076985;28;20423;-74
2022/03/12 07:30:09;;;;;;;18.23;7.50;;;;;;;4.10;40.65;95621.88;5044021;28;20187;-74
2022/03/12 07:32:35;;;;;;;19.55;8.32;;;;;;;3.63;41.45;95618.91;5068331;28;20512;-74
2022/03/12 07:35:02;;;;;;;11.10;8.73;;;;;;;3.80;40.31;95620.09;5078346;28;20178;-74
2022/03/12 07:37:27;;;;;;;9.60;7.90;;;;;;;3.20;41.68;95632.75;5076956;28;20416;-74
2022/03/12 07:39:53;;;;;;;9.97;8.30;;;;;;;2.63;42.26;95632.13;5061593;28;20437;-74
2022/03/12 07:42:18;;;;;;;9.67;7.43;;;;;;;3.12;41.65;95632.56;5081344;28;20205;-74
2022/03/12 07:44:44;;;;;;;9.87;7.83;;;;;;;2.49;43.05;95633.22;5083310;28;20275;-74
2022/03/12 07:47:09;;;;;;;10.33;7.93;;;;;;;2.47;43.43;95629.94;5070944;28;20178;-75
2022/03/12 07:49:35;;;;;;;9.13;7.60;;;;;;;2.69;42.47;95633.41;5069221;28;20665;-74
2022/03/12 07:52:01;;;;;;;7.80;6.93;;;;;;;2.97;40.56;95632.03;5066699;28;20197;-74
2022/03/12 07:54:27;;;;;;;10.97;8.10;;;;;;;2.15;42.47;95635.81;5063545;28;20194;-74
2022/03/12 07:56:53;;;;;;;11.23;8.60;;;;;;;2.68;41.54;95634.34;5079949;28;20440;-74
2022/03/12 07:59:18;;;;;;;9.70;7.80;;;;;;;3.08;41.15;95636.34;5073370;28;20173;-75
2022/03/12 08:01:44;;;;;;;9.80;7.20;;;;;;;3.31;40.34;95635.28;5077795;28;20178;-74
2022/03/12 08:04:10;;;;;;;10.13;7.77;;;;;;;3.52;39.97;95626.72;5074933;28;20186;-75
2022/03/12 08:06:39;;;;;;;8.53;7.60;;;;;;;3.63;39.19;95624.09;5074988;28;20435;-74
2022/03/12 08:09:05;;;;;;;8.70;6.63;;;;;;;4.19;38.57;95632.41;5076544;28;20457;-75
2022/03/12 08:11:32;;;;;;;13.53;7.67;;;;;;;3.67;38.05;95635.81;5067789;28;20425;-74
2022/03/12 08:14:05;;;;;;;16.63;6.90;;;;;;;4.04;38.25;95637.94;5072177;28;20171;-74
2022/03/12 08:16:33;;;;;;;19.67;9.13;;;;;;;3.75;37.66;95634.38;5082113;28;20463;-74
2022/03/12 08:19:01;;;;;;;9.80;8.80;;;;;;;3.84;38.42;95633.59;5087908;28;20435;-74
2022/03/12 08:21:27;;;;;;;16.60;8.30;;;;;;;3.54;38.05;95635.19;5080205;28;20446;-74
2022/03/12 08:23:53;;;;;;;27.77;8.40;;;;;;;3.83;37.37;95637.13;5080750;28;20412;-74
2022/03/12 08:26:22;;;;;;;19.90;7.77;;;;;;;2.80;38.83;95643.72;5075942;28;20174;-74
2022/03/12 08:28:47;;;;;;;10.67;7.30;;;;;;;3.42;38.04;95643.97;5062654;28;20451;-74
2022/03/12 08:31:14;;;;;;;8.03;7.00;;;;;;;3.93;37.12;95648.38;5081466;28;20435;-74
2022/03/12 08:33:39;;;;;;;13.67;7.50;;;;;;;4.49;36.13;95647.09;5074838;28;20165;-74
2022/03/12 08:36:06;;;;;;;16.00;8.17;;;;;;;5.57;35.06;95646.25;5084984;28;20435;-75
2022/03/12 08:38:35;;;;;;;9.90;6.87;;;;;;;4.80;36.57;95650.47;5060459;28;20182;-74
2022/03/12 08:41:02;;;;;;;11.13;8.37;;;;;;;4.65;36.15;95644.03;5060437;28;20458;-74
2022/03/12 08:43:27;;;;;;;16.73;7.17;;;;;;;4.39;34.79;95639.28;5077212;28;20424;-74
2022/03/12 08:45:53;;;;;;;7.80;6.90;;;;;;;5.14;34.20;95642.31;5075820;28;20471;-74
2022/03/12 08:48:19;;;;;;;9.37;7.03;;;;;;;4.11;35.36;95641.63;5078168;28;20244;-74
2022/03/12 08:50:46;;;;;;;8.30;6.90;;;;;;;4.44;34.00;95638.88;5078492;28;20324;-74
2022/03/12 08:53:12;;;;;;;9.10;8.20;;;;;;;3.42;35.91;95641.38;5076109;28;20171;-74
2022/03/12 08:55:39;;;;;;;13.33;6.93;;;;;;;3.23;36.38;95647.22;5073431;28;20432;-74
2022/03/12 08:58:05;;;;;;;12.60;7.60;;;;;;;2.77;36.42;95650.88;5077428;28;20405;-74
2022/03/12 09:00:31;;;;;;;8.03;6.27;;;;;;;3.60;35.89;95639.03;5073247;28;20425;-75
2022/03/12 09:02:57;;;;;;;10.50;5.93;;;;;;;4.41;33.13;95645.16;5072177;28;20485;-74
2022/03/12 09:05:23;;;;;;;6.47;5.90;;;;;;;3.47;34.95;95652.16;5074322;28;20910;-74
2022/03/12 09:07:51;;;;;;;8.50;5.97;;;;;;;3.75;33.95;95653.31;5064722;28;20416;-75
2022/03/12 09:10:20;;;;;;;5.53;4.93;;;;;;;3.72;32.88;95649.22;5061899;28;20261;-74
2022/03/12 09:12:45;;;;;;;6.70;5.23;;;;;;;4.21;33.40;95652.06;5081250;28;21154;-74
2022/03/12 09:15:13;;;;;;;8.47;6.20;;;;;;;5.67;31.83;95654.88;5072637;28;20483;-74
2022/03/12 09:17:39;;;;;;;5.67;4.30;;;;;;;5.06;31.77;95650.75;5055353;28;20173;-74
2022/03/12 09:20:06;;;;;;;5.73;5.07;;;;;;;4.60;32.41;95659.13;5067576;28;20511;-74
2022/03/12 09:22:34;;;;;;;5.20;4.70;;;;;;;4.98;31.38;95648.03;5067162;28;20460;-74
2022/03/12 09:25:03;;;;;;;7.23;5.93;;;;;;;5.55;31.43;95650.75;5071427;28;20435;-74
2022/03/12 09:27:29;;;;;;;6.57;5.40;;;;;;;5.34;30.41;95650.09;5066785;28;20754;-73
2022/03/12 09:29:54;;;;;;;4.90;3.67;;;;;;;5.32;31.10;95654.63;5048835;28;20479;-74
2022/03/12 09:33:04;;;;;;;4.60;4.10;;;;;;;5.58;29.71;95653.09;5076728;28;20213;-75
2022/03/12 09:35:31;;;;;;;5.03;4.20;;;;;;;5.34;29.84;95657.88;5064272;28;20465;-74
2022/03/12 09:38:01;;;;;;;4.83;4.40;;;;;;;5.94;29.45;95650.72;5074059;28;20417;-75
2022/03/12 09:41:01;;;;;;;5.60;5.10;;;;;;;6.11;29.69;95646.59;5072686;28;20435;-78
2022/03/12 09:43:27;;;;;;;6.77;5.07;;;;;;;6.16;30.89;95644.38;5047967;28;20428;-75
2022/03/12 09:45:53;;;;;;;5.53;5.07;;;;;;;5.80;30.92;95643.34;5061365;28;20520;-74
2022/03/12 09:48:20;;;;;;;5.93;5.37;;;;;;;6.23;29.78;95636.84;5050722;28;20298;-74
2022/03/12 09:50:46;;;;;;;5.87;5.33;;;;;;;6.53;30.17;95637.53;5070654;28;20475;-74
2022/03/12 09:53:11;;;;;;;7.40;5.93;;;;;;;6.05;30.94;95632.41;5068953;28;20452;-75
2022/03/12 09:55:38;;;;;;;7.17;6.47;;;;;;;5.38;32.04;95641.09;5072422;28;20436;-74
2022/03/12 09:58:04;;;;;;;6.70;5.73;;;;;;;5.95;29.70;95630.75;5072644;28;20180;-75
2022/03/12 10:00:30;;;;;;;8.97;6.40;;;;;;;5.81;31.30;95629.41;5082745;28;20431;-74
2022/03/12 10:02:57;;;;;;;7.30;6.53;;;;;;;5.51;32.22;95638.22;5059204;28;20530;-74
2022/03/12 10:05:23;;;;;;;8.23;7.43;;;;;;;6.15;31.42;95639.34;5066581;28;20701;-74
2022/03/12 10:07:49;;;;;;;8.77;6.97;;;;;;;7.23;30.24;95630.81;5077405;28;20432;-74
2022/03/12 10:10:22;;;;;;;9.47;5.90;;;;;;;6.51;30.44;95634.28;5091492;28;20432;-74
2022/03/12 10:12:50;;;;;;;11.30;5.83;;;;;;;7.00;30.54;95643.44;5080052;28;20869;-74
2022/03/12 10:15:17;;;;;;;6.07;5.50;;;;;;;6.93;29.58;95638.97;5046953;28;20502;-74
2022/03/12 10:17:44;;;;;;;8.50;6.10;;;;;;;5.83;30.53;95640.50;5074192;28;20462;-74
2022/03/12 10:20:11;;;;;;;7.97;6.17;;;;;;;6.19;29.11;95638.09;5074154;28;20459;-74
2022/03/12 10:22:41;;;;;;;9.43;5.53;;;;;;;5.43;30.73;95636.31;5087015;28;20434;-74
2022/03/12 10:25:08;;;;;;;6.33;5.73;;;;;;;6.15;30.43;95631.56;5069072;28;20421;-74
2022/03/12 10:27:34;;;;;;;6.03;5.43;;;;;;;6.36;29.14;95629.53;5066341;28;20429;-74
2022/03/12 10:30:01;;;;;;;9.10;6.17;;;;;;;6.58;29.14;95624.91;5077280;28;20466;-74
2022/03/12 10:32:29;;;;;;;8.13;5.03;;;;;;;4.75;31.02;95625.88;5079534;28;20433;-73
2022/03/12 10:34:59;;;;;;;6.80;4.20;;;;;;;4.57;31.54;95628.28;5065387;28;20421;-74
2022/03/12 10:37:32;;;;;;;6.10;4.70;;;;;;;4.49;31.99;95616.81;5061044;28;20425;-74
2022/03/12 10:40:03;;;;;;;7.03;6.17;;;;;;;4.99;32.80;95618.56;5068942;28;20429;-74
2022/03/12 10:42:30;;;;;;;6.27;5.67;;;;;;;5.09;31.85;95621.16;5078891;28;20870;-74
2022/03/12 10:45:10;;;;;;;8.60;5.90;;;;;;;4.35;33.84;95621.56;5069934;28;20432;-74
2022/03/12 10:47:45;;;;;;;6.67;5.37;;;;;;;4.42;33.50;95622.66;5065070;28;20428;-74
2022/03/12 10:50:14;;;;;;;13.73;6.40;;;;;;;4.82;32.59;95627.00;5067483;28;20841;-74
2022/03/12 10:52:47;;;;;;;6.30;5.70;;;;;;;5.16;32.14;95626.59;5076454;28;20429;-74
2022/03/12 10:55:22;;;;;;;7.53;5.60;;;;;;;4.77;31.73;95622.19;5065230;28;20434;-74
2022/03/12 10:58:17;;;;;;;8.10;6.03;;;;;;;5.17;31.10;95616.09;5075353;28;20443;-74
2022/03/12 11:00:58;;;;;;;7.10;6.40;;;;;;;4.85;32.50;95618.94;5069255;28;20531;-74
2022/03/12 11:03:30;;;;;;;6.10;5.43;;;;;;;4.18;32.99;95610.03;5065275;28;20435;-74
2022/03/12 11:05:56;;;;;;;7.00;5.63;;;;;;;3.66;35.12;95616.06;5065618;28;20432;-74
2022/03/12 11:08:24;;;;;;;7.27;4.50;;;;;;;3.60;35.12;95613.16;5085484;28;20527;-74
2022/03/12 11:10:54;;;;;;;11.70;6.20;;;;;;;3.92;35.88;95616.47;5078906;28;20430;-74
2022/03/12 11:13:36;;;;;;;6.93;6.33;;;;;;;3.67;35.56;95612.53;5046882;28;20456;-74
2022/03/12 11:16:16;;;;;;;6.80;5.53;;;;;;;4.51;34.37;95608.91;5074983;28;20472;-74
2022/03/12 11:18:54;;;;;;;5.27;3.73;;;;;;;5.40;32.17;95605.44;5062198;28;20456;-74
2022/03/12 11:21:52;;;;;;;6.63;6.00;;;;;;;5.90;32.35;95601.75;5061277;28;20424;-74
2022/03/12 11:24:22;;;;;;;7.43;5.67;;;;;;;6.50;31.97;95594.44;5063864;28;20447;-74
2022/03/12 11:26:55;;;;;;;6.77;6.20;;;;;;;7.19;30.83;95584.38;5068423;28;20970;-74
2022/03/12 11:29:23;;;;;;;6.83;6.23;;;;;;;7.50;29.14;95582.19;5063918;28;20483;-74
2022/03/12 11:31:54;;;;;;;2.67;1.87;;;;;;;6.00;29.03;95577.44;5082982;28;20427;-74
2022/03/12 11:34:24;;;;;;;5.63;4.73;;;;;;;5.21;30.72;95588.09;5071923;28;20439;-74
2022/03/12 11:37:06;;;;;;;3.93;3.50;;;;;;;5.10;31.09;95578.66;5063112;28;20451;-73
2022/03/12 11:39:41;;;;;;;6.93;5.93;;;;;;;6.19;31.77;95579.13;5069113;28;20681;-74